Главная страница
METAR-TAF:

METAR-TAF

Аэропорты :

Конакри, Гвинея

широта: 09-34N, долгота: 013-37W, высота над уровнем моря: 26 м

Текущие метеонаблюдения

Эта сводка был подготовлена 1 час и 47 минут назад, в 05:00 UTC
Штиль
Температура 23°C
Влажность 78%
Давление 1013 hPa
Видимость: 5000 м
мгла

METAR: GUCY 160500Z 00000KT 5000 HZ NSC 23/19 Q1013 NOSIG

Время: 06:47 (06:47 UTC)

Прогноз

Эта сводка был подготовлена 1 час и 47 минут назад, в 05:00 UTC
Прогноз действительный с 16-го 06 UTC до 17-го 12 UTC
Ветер 6 Узел от западно-северо-западный
Видимость: 5000 м
небольшая облачность на высоте 1500 фута
мгла
временами
С 16-го 06 UTC до 16-го 11 UTC
Ветер 2 Узел переменных направлений
Видимость: 3000 м
небольшая облачность на высоте 1500 фута
дымка
изменения
С 16-го 15 UTC до 16-го 19 UTC
Ветер 4 Узел от юго-западный
Видимость: 7000 м
мгла

TAF: GUCY 160500Z 1606/1712 30006KT 5000 HZ FEW015 TEMPO 1606/1611 VRB02KT 3000 BR FEW015 SCT0 BECMG 1615/1619 22004KT 7000 HZ NSC

Метеонаблюдения и прогнозы для более 4000 аэропортов (сводки METAR и TAF).

Имеющиеся станции представлены на карте желтыми и красными точками.

Чтобы увидеть название станции, наведите на нее мышь.

Затем щелкните, чтобы увидеть метеонаблюдения и метеопрогнозы.

Управление картой: чтобы увеличить масштаб, щелкните зеленые кнопки с черным крестиком; чтобы уменьшить масштаб, щелкните зеленую кнопку с тире; для просмотра соседних карт щелкайте зеленые стрелки.


METAR-TAF: